Time;durP1;ratioP1;P1;durP2;ratioP2;P2;SDS_P1;SDS_P2;PMS_P1;PMS_P2;Temp;Humidity;BMP_temperature;BMP_pressure;BME280_temperature;BME280_humidity;BME280_pressure;Samples;Min_cycle;Max_cycle;Signal;HPM_P1;HPM_P2
2023/01/31 00:00:01;;;;;;;;;;;17.50;46.30;;;;;;5076185;28;20345;-74
2023/01/31 00:02:26;;;;;;;;;;;17.60;46.50;;;;;;5073466;28;19913;-74
2023/01/31 00:04:52;;;;;;;;;;;17.50;46.40;;;;;;5075398;28;19912;-74
2023/01/31 00:07:17;;;;;;;;;;;17.50;46.40;;;;;;5074510;28;19933;-74
2023/01/31 00:09:43;;;;;;;;;;;17.50;46.50;;;;;;5075182;28;20277;-73
2023/01/31 00:12:08;;;;;;;;;;;17.50;46.40;;;;;;5072749;28;19932;-74
2023/01/31 00:14:34;;;;;;;;;;;17.50;46.40;;;;;;5054561;28;19935;-73
2023/01/31 00:16:59;;;;;;;;;;;17.40;46.40;;;;;;5061760;28;19916;-74
2023/01/31 00:19:24;;;;;;;;;;;17.40;46.50;;;;;;5075078;28;19912;-74
2023/01/31 00:21:50;;;;;;;;;;;17.40;46.50;;;;;;5075713;28;19908;-74
2023/01/31 00:24:15;;;;;;;;;;;17.40;46.50;;;;;;5074607;28;19908;-74
2023/01/31 00:26:41;;;;;;;;;;;17.40;46.50;;;;;;5073886;28;19912;-73
2023/01/31 00:29:06;;;;;;;;;;;17.40;46.50;;;;;;5074580;28;20413;-74
2023/01/31 00:31:32;;;;;;;;;;;17.40;46.50;;;;;;5072895;28;20057;-74
2023/01/31 00:33:58;;;;;;;;;;;17.40;46.50;;;;;;5074504;28;19920;-74
2023/01/31 00:36:24;;;;;;;;;;;17.30;46.50;;;;;;5053167;28;20225;-74
2023/01/31 00:38:50;;;;;;;;;;;17.30;46.40;;;;;;5054454;28;19935;-73
2023/01/31 00:41:16;;;;;;;;;;;17.30;46.50;;;;;;5053771;28;20012;-73
2023/01/31 00:43:41;;;;;;;;;;;17.30;46.60;;;;;;5069006;28;19912;-74
2023/01/31 00:46:07;;;;;;;;;;;17.30;46.60;;;;;;5039060;28;19916;-74
2023/01/31 00:48:32;;;;;;;;;;;17.20;46.50;;;;;;5067559;28;19920;-74
2023/01/31 00:50:58;;;;;;;;;;;17.20;46.50;;;;;;5073266;28;20270;-74
2023/01/31 00:53:24;;;;;;;;;;;17.20;46.60;;;;;;5074108;28;19908;-73
2023/01/31 00:55:50;;;;;;;;;;;17.20;46.70;;;;;;5057198;28;19913;-73
2023/01/31 00:58:16;;;;;;;;;;;17.20;46.80;;;;;;5073187;28;19916;-74
2023/01/31 01:00:41;;;;;;;;;;;17.20;46.70;;;;;;5073580;28;19928;-74
2023/01/31 01:03:06;;;;;;;;;;;17.20;47.40;;;;;;5073046;28;19909;-73
2023/01/31 01:05:32;;;;;;;;;;;17.10;46.60;;;;;;5074902;28;19916;-73
2023/01/31 01:07:57;;;;;;;;;;;17.10;46.60;;;;;;5073417;28;19924;-73
2023/01/31 01:10:23;;;;;;;;;;;17.10;46.70;;;;;;5073318;28;19912;-74
2023/01/31 01:12:48;;;;;;;;;;;17.10;46.70;;;;;;5071882;28;20388;-73
2023/01/31 01:15:14;;;;;;;;;;;17.10;46.80;;;;;;5073902;28;20394;-74
2023/01/31 01:17:39;;;;;;;;;;;17.10;46.90;;;;;;5073735;28;19912;-73
2023/01/31 01:20:05;;;;;;;;;;;17.10;46.80;;;;;;5073163;28;20011;-73
2023/01/31 01:22:30;;;;;;;;;;;17.00;46.80;;;;;;5073015;28;19915;-73
2023/01/31 01:24:56;;;;;;;;;;;17.00;46.80;;;;;;5074374;28;20316;-73
2023/01/31 01:27:21;;;;;;;;;;;17.00;46.80;;;;;;5073344;28;20291;-73
2023/01/31 01:29:47;;;;;;;;;;;17.00;46.80;;;;;;5073436;28;20360;-74
2023/01/31 01:32:12;;;;;;;;;;;17.00;46.80;;;;;;5074534;28;19916;-74
2023/01/31 01:34:37;;;;;;;;;;;17.00;46.80;;;;;;5073020;28;19923;-73
2023/01/31 01:37:10;;;;;;;;;;;17.00;46.80;;;;;;5072125;28;19967;-73
2023/01/31 01:39:39;;;;;;;;;;;16.90;46.90;;;;;;5072946;28;19916;-73
2023/01/31 01:42:04;;;;;;;;;;;16.90;46.90;;;;;;5072788;28;19912;-73
2023/01/31 01:44:41;;;;;;;;;;;16.90;46.90;;;;;;5073113;28;19923;-73
2023/01/31 01:47:17;;;;;;;;;;;16.90;46.90;;;;;;5073011;28;19909;-73
2023/01/31 01:49:43;;;;;;;;;;;16.90;46.90;;;;;;5073718;28;19913;-73
2023/01/31 01:52:08;;;;;;;;;;;16.90;47.00;;;;;;5071842;28;19912;-73
2023/01/31 01:54:44;;;;;;;;;;;16.90;46.90;;;;;;5072828;28;19909;-73
2023/01/31 01:57:10;;;;;;;;;;;16.90;47.00;;;;;;5073650;28;19913;-74
2023/01/31 01:59:42;;;;;;;;;;;16.90;47.00;;;;;;5072864;28;19908;-73
2023/01/31 02:02:07;;;;;;;;;;;16.80;46.90;;;;;;5072466;28;20019;-74
2023/01/31 02:04:35;;;;;;;;;;;16.80;47.00;;;;;;5089076;28;20028;-73
2023/01/31 02:07:01;;;;;;;;;;;16.80;47.00;;;;;;5057091;28;19925;-73
2023/01/31 02:09:30;;;;;;;;;;;16.80;47.00;;;;;;5036120;28;19917;-74
2023/01/31 02:11:55;;;;;;;;;;;16.80;47.10;;;;;;5063519;28;20426;-73
2023/01/31 02:14:20;;;;;;;;;;;16.80;47.70;;;;;;5058763;28;19908;-74
2023/01/31 02:16:46;;;;;;;;;;;16.90;46.90;;;;;;5072098;28;19999;-73
2023/01/31 02:19:16;;;;;;;;;;;17.00;46.70;;;;;;5073508;28;19920;-73
2023/01/31 02:21:47;;;;;;;;;;;17.20;46.40;;;;;;5071543;28;20334;-73
2023/01/31 02:24:27;;;;;;;;;;;17.30;46.20;;;;;;5067303;28;19944;-72
2023/01/31 02:27:12;;;;;;;;;;;17.50;45.90;;;;;;5077085;28;20234;-73
2023/01/31 02:29:46;;;;;;;;;;;17.80;45.60;;;;;;5071980;28;19913;-73
2023/01/31 02:32:30;;;;;;;;;;;18.10;45.30;;;;;;5073349;28;20001;-73
2023/01/31 02:35:14;;;;;;;;;;;18.10;45.10;;;;;;5070850;28;20334;-74
2023/01/31 02:37:56;;;;;;;;;;;18.10;45.80;;;;;;5071840;28;19916;-73
2023/01/31 02:40:24;;;;;;;;;;;18.10;45.10;;;;;;5071790;28;20396;-74
2023/01/31 02:42:59;;;;;;;;;;;18.00;44.80;;;;;;5073057;28;19915;-73
2023/01/31 02:45:28;;;;;;;;;;;18.00;45.10;;;;;;5071921;28;19908;-74
2023/01/31 02:48:06;;;;;;;;;;;17.90;44.90;;;;;;5073009;28;19909;-74
2023/01/31 02:50:37;;;;;;;;;;;18.00;45.10;;;;;;5057041;28;19967;-73
2023/01/31 02:53:03;;;;;;;;;;;18.00;45.20;;;;;;5070673;28;20265;-73
2023/01/31 02:58:14;;;;;;;;;;;18.00;45.10;;;;;;5072533;28;19963;-74
2023/01/31 03:00:41;;;;;;;;;;;17.90;45.20;;;;;;5071416;28;20023;-74
2023/01/31 03:03:07;;;;;;;;;;;17.90;45.30;;;;;;5071832;28;20295;-74
2023/01/31 03:05:32;;;;;;;;;;;17.90;45.10;;;;;;5065105;28;19908;-74
2023/01/31 03:07:59;;;;;;;;;;;17.90;45.30;;;;;;5072890;28;19925;-73
2023/01/31 03:10:37;;;;;;;;;;;17.90;45.40;;;;;;5072778;28;20182;-73
2023/01/31 03:13:05;;;;;;;;;;;17.90;45.30;;;;;;5054871;28;19920;-73
2023/01/31 03:18:19;;;;;;;;;;;17.90;45.10;;;;;;5051760;28;19920;-74
2023/01/31 03:20:52;;;;;;;;;;;17.90;45.10;;;;;;5047330;28;19913;-74
2023/01/31 03:23:28;;;;;;;;;;;17.80;45.10;;;;;;5060977;28;20372;-74
2023/01/31 03:25:53;;;;;;;;;;;17.80;45.10;;;;;;5071061;28;19912;-73
2023/01/31 03:28:20;;;;;;;;;;;17.80;45.10;;;;;;5071255;28;19919;-74
2023/01/31 03:30:53;;;;;;;;;;;17.80;45.10;;;;;;5071498;28;19967;-74
2023/01/31 03:33:20;;;;;;;;;;;17.80;45.10;;;;;;5070630;28;19939;-73
2023/01/31 03:35:46;;;;;;;;;;;17.80;45.20;;;;;;5072109;28;19958;-74
2023/01/31 03:38:22;;;;;;;;;;;17.80;45.30;;;;;;5071378;28;20318;-73
2023/01/31 03:40:55;;;;;;;;;;;17.70;45.40;;;;;;5071062;28;20136;-73
2023/01/31 03:43:25;;;;;;;;;;;17.70;45.50;;;;;;5070515;28;19908;-73
2023/01/31 03:46:08;;;;;;;;;;;17.70;45.60;;;;;;5071248;28;19932;-74
2023/01/31 03:48:35;;;;;;;;;;;17.60;45.50;;;;;;5067346;28;20047;-73
2023/01/31 03:51:01;;;;;;;;;;;17.60;45.40;;;;;;5064023;28;20300;-73
2023/01/31 03:53:35;;;;;;;;;;;17.60;45.50;;;;;;5059422;28;19912;-74
2023/01/31 03:56:05;;;;;;;;;;;17.60;45.60;;;;;;5065139;28;19909;-74
2023/01/31 03:58:33;;;;;;;;;;;17.60;45.70;;;;;;5070986;28;19909;-74
2023/01/31 04:00:58;;;;;;;;;;;17.60;45.60;;;;;;5072036;28;20383;-74
2023/01/31 04:03:28;;;;;;;;;;;17.60;45.60;;;;;;5070088;28;19913;-74
2023/01/31 04:05:54;;;;;;;;;;;17.60;45.70;;;;;;5069645;28;20028;-74
2023/01/31 04:08:20;;;;;;;;;;;17.60;45.60;;;;;;5053883;28;19963;-74
2023/01/31 04:10:45;;;;;;;;;;;17.60;45.70;;;;;;5070769;28;19934;-73
2023/01/31 04:13:10;;;;;;;;;;;17.50;45.60;;;;;;5065226;28;20003;-74
2023/01/31 04:15:36;;;;;;;;;;;17.50;45.70;;;;;;5068719;28;20003;-74
2023/01/31 04:18:01;;;;;;;;;;;17.50;45.90;;;;;;5053962;28;19908;-73
2023/01/31 04:20:27;;;;;;;;;;;17.50;45.60;;;;;;5071829;28;19991;-74
2023/01/31 04:22:52;;;;;;;;;;;17.60;45.80;;;;;;5072118;28;19916;-74
2023/01/31 04:25:18;;;;;;;;;;;17.50;45.60;;;;;;5053609;28;19974;-73
2023/01/31 04:27:43;;;;;;;;;;;17.50;45.60;;;;;;5070164;28;19920;-74
2023/01/31 04:30:09;;;;;;;;;;;17.50;45.70;;;;;;5069959;28;19920;-74
2023/01/31 04:32:34;;;;;;;;;;;17.50;45.70;;;;;;5071980;28;19908;-71
2023/01/31 04:35:00;;;;;;;;;;;17.50;45.80;;;;;;5071256;28;20372;-73
2023/01/31 04:37:25;;;;;;;;;;;17.50;45.70;;;;;;5071893;28;19909;-73
2023/01/31 04:39:51;;;;;;;;;;;17.50;45.60;;;;;;5074923;28;19908;-73
2023/01/31 04:42:16;;;;;;;;;;;17.50;45.70;;;;;;5075255;28;19912;-73
2023/01/31 04:44:42;;;;;;;;;;;17.50;45.70;;;;;;5074489;28;19921;-74
2023/01/31 04:47:07;;;;;;;;;;;17.50;45.60;;;;;;5072796;28;19962;-73
2023/01/31 04:49:32;;;;;;;;;;;17.40;45.50;;;;;;5074522;28;19927;-73
2023/01/31 04:51:58;;;;;;;;;;;17.50;45.60;;;;;;5073649;28;20378;-74
2023/01/31 04:54:23;;;;;;;;;;;17.50;45.60;;;;;;5075269;28;20229;-74
2023/01/31 04:56:49;;;;;;;;;;;17.60;45.70;;;;;;5073714;28;19942;-74
2023/01/31 04:59:14;;;;;;;;;;;17.50;45.70;;;;;;5074126;28;19912;-74
2023/01/31 05:01:40;;;;;;;;;;;17.60;45.70;;;;;;5071538;28;19917;-74
2023/01/31 05:04:06;;;;;;;;;;;17.60;45.70;;;;;;5074065;28;19913;-73
2023/01/31 05:06:32;;;;;;;;;;;17.50;45.60;;;;;;5072742;28;19939;-74
2023/01/31 05:09:00;;;;;;;;;;;17.60;45.80;;;;;;5073416;28;19917;-74
2023/01/31 05:11:26;;;;;;;;;;;17.50;45.90;;;;;;5073177;28;19912;-74
2023/01/31 05:13:51;;;;;;;;;;;17.50;45.80;;;;;;5061091;28;20364;-74
2023/01/31 05:16:17;;;;;;;;;;;17.50;45.80;;;;;;5036883;28;19916;-74
2023/01/31 05:18:42;;;;;;;;;;;17.50;45.90;;;;;;5049760;28;19935;-74
2023/01/31 05:21:08;;;;;;;;;;;17.50;46.00;;;;;;5063262;28;20038;-74
2023/01/31 05:23:34;;;;;;;;;;;17.50;45.90;;;;;;5074255;28;20391;-74
2023/01/31 05:25:59;;;;;;;;;;;17.50;45.90;;;;;;5073467;28;19913;-74
2023/01/31 05:28:25;;;;;;;;;;;17.50;46.10;;;;;;5073195;28;19914;-74
2023/01/31 05:30:51;;;;;;;;;;;17.40;45.90;;;;;;5073148;28;20338;-72
2023/01/31 05:33:19;;;;;;;;;;;17.40;46.00;;;;;;5072935;28;19909;-74
2023/01/31 05:35:47;;;;;;;;;;;17.50;46.10;;;;;;5073082;28;19956;-73
2023/01/31 05:38:13;;;;;;;;;;;17.40;46.00;;;;;;5073932;28;19955;-73
2023/01/31 05:40:38;;;;;;;;;;;17.40;45.90;;;;;;5074263;28;19917;-73
2023/01/31 05:43:04;;;;;;;;;;;17.40;45.90;;;;;;5074057;28;19916;-73
2023/01/31 05:45:29;;;;;;;;;;;17.40;46.00;;;;;;5074465;28;19995;-73
2023/01/31 05:47:55;;;;;;;;;;;17.50;46.00;;;;;;5073892;28;19916;-73
2023/01/31 05:50:20;;;;;;;;;;;17.40;45.80;;;;;;5073622;28;19912;-72
2023/01/31 05:52:52;;;;;;;;;;;17.50;45.90;;;;;;5071675;28;19912;-74
2023/01/31 05:55:18;;;;;;;;;;;17.50;46.00;;;;;;5070869;28;19966;-73
2023/01/31 05:57:43;;;;;;;;;;;17.40;46.00;;;;;;5071305;28;20420;-73
2023/01/31 06:00:09;;;;;;;;;;;17.40;46.10;;;;;;5072551;28;20288;-73
2023/01/31 06:02:35;;;;;;;;;;;17.40;45.90;;;;;;5074024;28;19987;-74
2023/01/31 06:05:00;;;;;;;;;;;17.40;46.10;;;;;;5072966;28;19908;-73
2023/01/31 06:07:25;;;;;;;;;;;17.40;46.00;;;;;;5072341;28;19921;-73
2023/01/31 06:09:51;;;;;;;;;;;17.40;46.00;;;;;;5072052;28;19991;-74
2023/01/31 06:12:16;;;;;;;;;;;17.50;46.10;;;;;;5073152;28;19912;-73
2023/01/31 06:14:43;;;;;;;;;;;17.50;46.10;;;;;;5054055;28;20277;-73
2023/01/31 06:17:08;;;;;;;;;;;17.40;46.00;;;;;;5067299;28;20481;-73
2023/01/31 06:19:34;;;;;;;;;;;17.40;46.10;;;;;;5072310;28;20099;-73
2023/01/31 06:21:59;;;;;;;;;;;17.50;45.90;;;;;;5073208;28;19908;-74
2023/01/31 06:24:25;;;;;;;;;;;17.40;46.10;;;;;;5071953;28;19912;-73
2023/01/31 06:26:50;;;;;;;;;;;17.40;46.00;;;;;;5071656;28;19908;-71
2023/01/31 06:29:15;;;;;;;;;;;17.40;45.90;;;;;;5073299;28;19912;-71
2023/01/31 06:31:44;;;;;;;;;;;17.30;45.90;;;;;;5071663;28;20374;-72
2023/01/31 06:34:10;;;;;;;;;;;17.30;46.00;;;;;;5070417;28;19962;-75
2023/01/31 06:36:35;;;;;;;;;;;17.30;46.00;;;;;;5072924;28;19909;-73
2023/01/31 06:39:02;;;;;;;;;;;17.30;46.10;;;;;;5071824;28;19916;-74
2023/01/31 06:41:28;;;;;;;;;;;17.30;46.10;;;;;;5072556;28;19962;-74
2023/01/31 06:43:53;;;;;;;;;;;17.30;46.10;;;;;;5071927;28;19912;-74
2023/01/31 06:46:19;;;;;;;;;;;17.30;46.30;;;;;;5070220;28;19916;-74
2023/01/31 06:48:46;;;;;;;;;;;17.30;46.10;;;;;;5068751;28;19932;-73
2023/01/31 06:51:11;;;;;;;;;;;17.30;46.10;;;;;;5065609;28;19951;-72
2023/01/31 06:53:36;;;;;;;;;;;17.30;46.20;;;;;;5068723;28;19948;-74
2023/01/31 06:56:02;;;;;;;;;;;17.30;46.30;;;;;;5059374;28;20384;-74
2023/01/31 06:58:27;;;;;;;;;;;17.30;46.20;;;;;;5067193;28;19963;-74
2023/01/31 07:00:53;;;;;;;;;;;17.30;46.20;;;;;;5059461;28;20331;-73
2023/01/31 07:03:18;;;;;;;;;;;17.30;46.30;;;;;;5067082;28;20430;-73
2023/01/31 07:05:44;;;;;;;;;;;17.30;46.30;;;;;;5064711;28;19916;-74
2023/01/31 07:08:10;;;;;;;;;;;17.40;46.30;;;;;;5049738;28;19920;-74
2023/01/31 07:10:35;;;;;;;;;;;17.40;46.30;;;;;;5066825;28;19916;-74
2023/01/31 07:13:01;;;;;;;;;;;17.30;46.30;;;;;;5065076;28;20392;-74
2023/01/31 07:15:26;;;;;;;;;;;17.30;46.40;;;;;;5065135;28;20391;-73
2023/01/31 07:17:56;;;;;;;;;;;17.30;46.40;;;;;;5056781;28;20333;-74
2023/01/31 07:20:21;;;;;;;;;;;17.30;46.40;;;;;;5065792;28;20387;-74
2023/01/31 07:22:52;;;;;;;;;;;17.30;46.40;;;;;;5067628;28;19947;-74
2023/01/31 07:25:18;;;;;;;;;;;17.30;46.40;;;;;;5065370;28;19913;-74
2023/01/31 07:27:43;;;;;;;;;;;17.30;46.40;;;;;;5064426;28;19927;-74
2023/01/31 07:30:09;;;;;;;;;;;17.60;46.40;;;;;;5062038;28;19921;-74
2023/01/31 07:32:35;;;;;;;;;;;18.50;45.00;;;;;;5065955;28;19920;-74
2023/01/31 07:35:00;;;;;;;;;;;19.50;43.20;;;;;;5065156;28;20304;-74
2023/01/31 07:37:25;;;;;;;;;;;20.30;41.70;;;;;;5061840;28;20011;-74
2023/01/31 07:39:51;;;;;;;;;;;20.90;40.70;;;;;;5057905;28;19935;-73
2023/01/31 07:42:16;;;;;;;;;;;21.40;40.10;;;;;;5065288;28;19916;-74
2023/01/31 07:44:42;;;;;;;;;;;21.70;39.70;;;;;;5062367;28;20002;-74
2023/01/31 07:47:07;;;;;;;;;;;22.00;39.40;;;;;;5059738;28;20019;-74
2023/01/31 07:49:33;;;;;;;;;;;22.20;39.50;;;;;;5072266;28;19974;-74
2023/01/31 07:51:58;;;;;;;;;;;22.30;39.30;;;;;;5071147;28;20015;-74
2023/01/31 07:54:23;;;;;;;;;;;22.40;39.30;;;;;;5070934;28;19962;-74
2023/01/31 07:56:49;;;;;;;;;;;22.50;39.30;;;;;;5063674;28;19974;-74
2023/01/31 07:59:16;;;;;;;;;;;22.50;39.10;;;;;;5067519;28;19912;-75
2023/01/31 08:04:25;;;;;;;;;;;22.70;39.20;;;;;;5071086;28;19935;-74
2023/01/31 08:06:52;;;;;;;;;;;22.70;39.00;;;;;;5070189;28;19928;-74
2023/01/31 08:09:17;;;;;;;;;;;22.80;39.30;;;;;;5070915;28;19920;-74
2023/01/31 08:11:43;;;;;;;;;;;22.80;39.30;;;;;;5071145;28;19909;-74
2023/01/31 08:14:08;;;;;;;;;;;22.90;39.30;;;;;;5071585;28;20380;-75
2023/01/31 08:16:35;;;;;;;;;;;22.90;39.30;;;;;;5076448;28;19918;-74
2023/01/31 08:19:00;;;;;;;;;;;22.90;39.20;;;;;;5055127;28;19909;-74
2023/01/31 08:21:26;;;;;;;;;;;23.00;39.20;;;;;;5067553;28;19979;-74
2023/01/31 08:23:51;;;;;;;;;;;23.00;39.00;;;;;;5074184;28;19915;-74
2023/01/31 08:26:17;;;;;;;;;;;23.00;39.20;;;;;;5075538;28;19961;-74
2023/01/31 08:28:43;;;;;;;;;;;23.00;39.00;;;;;;5074346;28;20295;-74
2023/01/31 08:31:12;;;;;;;;;;;23.10;39.00;;;;;;5057165;28;19917;-74
2023/01/31 08:33:38;;;;;;;;;;;23.10;38.90;;;;;;5074224;28;20379;-73
2023/01/31 08:36:10;;;;;;;;;;;23.10;38.90;;;;;;5074255;28;19909;-74
2023/01/31 08:38:35;;;;;;;;;;;23.10;38.80;;;;;;5075132;28;19912;-73
2023/01/31 08:41:01;;;;;;;;;;;23.20;38.90;;;;;;5074627;28;19938;-74
2023/01/31 08:43:26;;;;;;;;;;;23.20;38.90;;;;;;5075653;28;20381;-74
2023/01/31 08:45:52;;;;;;;;;;;23.20;38.80;;;;;;5075145;28;20331;-74
2023/01/31 08:48:17;;;;;;;;;;;23.20;38.70;;;;;;5074634;28;20261;-73
2023/01/31 08:50:43;;;;;;;;;;;23.20;38.70;;;;;;5043975;28;20253;-74
2023/01/31 08:53:08;;;;;;;;;;;23.20;38.80;;;;;;5069305;28;19916;-74
2023/01/31 08:55:34;;;;;;;;;;;23.20;38.70;;;;;;5067272;28;19938;-73
2023/01/31 08:58:00;;;;;;;;;;;23.20;38.60;;;;;;5069096;28;20415;-74
2023/01/31 09:00:26;;;;;;;;;;;23.30;38.70;;;;;;5073740;28;19919;-73
2023/01/31 09:02:54;;;;;;;;;;;23.30;38.60;;;;;;5074733;28;20514;-72
2023/01/31 09:05:19;;;;;;;;;;;23.30;38.60;;;;;;5071727;28;19919;-73
2023/01/31 09:07:45;;;;;;;;;;;23.20;38.60;;;;;;5073486;28;19921;-74
2023/01/31 09:10:11;;;;;;;;;;;23.20;38.60;;;;;;5071057;28;19970;-73
2023/01/31 09:12:36;;;;;;;;;;;23.30;38.60;;;;;;5068498;28;19916;-74
2023/01/31 09:15:02;;;;;;;;;;;23.30;38.60;;;;;;5071125;28;19992;-73
2023/01/31 09:17:28;;;;;;;;;;;23.30;38.60;;;;;;5072081;28;19920;-72
2023/01/31 09:19:53;;;;;;;;;;;23.30;38.50;;;;;;5052591;28;19917;-74
2023/01/31 09:22:19;;;;;;;;;;;23.40;38.50;;;;;;5068512;28;20025;-74
2023/01/31 09:24:45;;;;;;;;;;;23.40;38.40;;;;;;5056692;28;19974;-73
2023/01/31 09:27:11;;;;;;;;;;;23.40;38.40;;;;;;5068284;28;19913;-74
2023/01/31 09:29:37;;;;;;;;;;;23.40;38.40;;;;;;5072280;28;19916;-74
2023/01/31 09:32:02;;;;;;;;;;;23.40;38.20;;;;;;5071233;28;19912;-73
2023/01/31 09:34:28;;;;;;;;;;;23.40;38.20;;;;;;5073691;28;20151;-74
2023/01/31 09:36:56;;;;;;;;;;;23.50;38.20;;;;;;5074232;28;20015;-72
2023/01/31 09:39:22;;;;;;;;;;;23.40;38.30;;;;;;5064463;28;19916;-73
2023/01/31 09:41:50;;;;;;;;;;;23.50;38.30;;;;;;5072168;28;20299;-72
2023/01/31 09:44:18;;;;;;;;;;;23.40;38.20;;;;;;5072991;28;19916;-72
2023/01/31 09:46:49;;;;;;;;;;;23.50;38.20;;;;;;5071945;28;19958;-72
2023/01/31 09:49:28;;;;;;;;;;;23.50;38.10;;;;;;5071942;28;20387;-72
2023/01/31 09:51:56;;;;;;;;;;;23.50;38.10;;;;;;5071294;28;19916;-72
2023/01/31 09:54:24;;;;;;;;;;;23.50;38.10;;;;;;5073433;28;20276;-72
2023/01/31 09:57:04;;;;;;;;;;;23.50;38.20;;;;;;5067478;28;19924;-72
2023/01/31 09:59:48;;;;;;;;;;;23.50;38.20;;;;;;5056928;28;20273;-72
2023/01/31 10:02:26;;;;;;;;;;;23.30;38.50;;;;;;5068956;28;19923;-72
2023/01/31 10:05:06;;;;;;;;;;;23.20;38.80;;;;;;5071324;28;19912;-72
2023/01/31 10:07:33;;;;;;;;;;;23.40;38.70;;;;;;5069837;28;20662;-72
2023/01/31 10:10:01;;;;;;;;;;;23.50;38.60;;;;;;5068001;28;19916;-71
2023/01/31 10:12:28;;;;;;;;;;;23.50;38.50;;;;;;5067587;28;19920;-72
2023/01/31 10:14:55;;;;;;;;;;;23.50;38.50;;;;;;5070379;28;19916;-73
2023/01/31 10:17:33;;;;;;;;;;;23.50;38.50;;;;;;5071345;28;19966;-73
2023/01/31 10:19:59;;;;;;;;;;;23.50;38.50;;;;;;5071116;28;19962;-73
2023/01/31 10:22:27;;;;;;;;;;;23.50;38.50;;;;;;5065962;28;19922;-72
2023/01/31 10:24:57;;;;;;;;;;;23.50;39.10;;;;;;5069445;28;19913;-72
2023/01/31 10:27:45;;;;;;;;;;;23.50;38.50;;;;;;5066789;28;19916;-73
2023/01/31 10:30:13;;;;;;;;;;;23.50;38.50;;;;;;5066801;28;19924;-72
2023/01/31 10:32:43;;;;;;;;;;;23.60;38.50;;;;;;5069468;28;21263;-72
2023/01/31 10:35:34;;;;;;;;;;;23.60;38.50;;;;;;5072269;28;19942;-72
2023/01/31 10:38:04;;;;;;;;;;;23.60;38.40;;;;;;5061417;28;19961;-73
2023/01/31 10:40:34;;;;;;;;;;;23.60;38.30;;;;;;5070951;28;20291;-72
2023/01/31 10:43:02;;;;;;;;;;;23.70;38.20;;;;;;5070613;28;20396;-72
2023/01/31 10:45:29;;;;;;;;;;;23.70;38.10;;;;;;5071071;28;19909;-72
2023/01/31 10:48:07;;;;;;;;;;;23.70;38.10;;;;;;5050884;28;19981;-72
2023/01/31 10:50:47;;;;;;;;;;;23.70;38.10;;;;;;5064099;28;20376;-73
2023/01/31 10:53:28;;;;;;;;;;;23.70;37.90;;;;;;5071819;28;19959;-72
2023/01/31 10:55:56;;;;;;;;;;;23.70;37.90;;;;;;5071695;28;19920;-72
2023/01/31 10:58:22;;;;;;;;;;;23.70;38.00;;;;;;5071545;28;19913;-72
2023/01/31 11:00:47;;;;;;;;;;;23.70;37.90;;;;;;5071479;28;20020;-73
2023/01/31 11:03:12;;;;;;;;;;;23.80;37.80;;;;;;5070753;28;20276;-72
2023/01/31 11:05:48;;;;;;;;;;;23.80;37.70;;;;;;5064673;28;19923;-71
2023/01/31 11:08:34;;;;;;;;;;;23.80;37.80;;;;;;5069024;28;19931;-73
2023/01/31 11:11:03;;;;;;;;;;;23.80;37.80;;;;;;5071727;28;20018;-72
2023/01/31 11:13:29;;;;;;;;;;;23.80;37.80;;;;;;5050101;28;20335;-72
2023/01/31 11:15:54;;;;;;;;;;;23.80;37.90;;;;;;5070921;28;19908;-73
2023/01/31 11:18:27;;;;;;;;;;;23.80;37.80;;;;;;5068980;28;19908;-73
2023/01/31 11:20:53;;;;;;;;;;;23.80;37.70;;;;;;5069666;28;19920;-72
2023/01/31 11:23:22;;;;;;;;;;;23.80;37.70;;;;;;5053896;28;20366;-73
2023/01/31 11:25:48;;;;;;;;;;;23.80;37.70;;;;;;5071114;28;19908;-72
2023/01/31 11:28:20;;;;;;;;;;;23.80;37.80;;;;;;5070508;28;19915;-72
2023/01/31 11:30:46;;;;;;;;;;;23.80;37.70;;;;;;5071881;28;19961;-72
2023/01/31 11:33:30;;;;;;;;;;;23.80;37.70;;;;;;5070313;28;19913;-73
2023/01/31 11:35:56;;;;;;;;;;;23.80;37.70;;;;;;5070181;28;19908;-73
2023/01/31 11:38:21;;;;;;;;;;;23.80;37.70;;;;;;5068955;28;19913;-73
2023/01/31 11:40:47;;;;;;;;;;;23.80;37.70;;;;;;5070970;28;19913;-73
2023/01/31 11:43:12;;;;;;;;;;;23.80;37.80;;;;;;5071941;28;19999;-73
2023/01/31 11:45:38;;;;;;;;;;;23.80;37.90;;;;;;5071985;28;20338;-73
2023/01/31 11:48:07;;;;;;;;;;;23.80;37.80;;;;;;5074453;28;19939;-72
2023/01/31 11:50:32;;;;;;;;;;;23.80;37.80;;;;;;5076277;28;19956;-73
2023/01/31 11:53:01;;;;;;;;;;;23.80;37.80;;;;;;5074120;28;19909;-72
2023/01/31 11:55:27;;;;;;;;;;;23.80;37.80;;;;;;5066973;28;19946;-73
2023/01/31 11:57:56;;;;;;;;;;;23.90;37.80;;;;;;5070322;28;19908;-73
2023/01/31 12:00:23;;;;;;;;;;;23.80;37.80;;;;;;5071900;28;19961;-73
2023/01/31 12:03:11;;;;;;;;;;;23.80;37.80;;;;;;5074596;28;20007;-72
2023/01/31 12:05:41;;;;;;;;;;;23.80;37.80;;;;;;5073513;28;19999;-73
2023/01/31 12:08:26;;;;;;;;;;;23.90;37.90;;;;;;5073779;28;19925;-74
2023/01/31 12:10:51;;;;;;;;;;;23.80;37.70;;;;;;5075092;28;19916;-73
2023/01/31 12:13:18;;;;;;;;;;;23.90;37.90;;;;;;5066977;28;20273;-73
2023/01/31 12:16:12;;;;;;;;;;;23.90;37.80;;;;;;5074264;28;20326;-73
2023/01/31 12:18:38;;;;;;;;;;;23.90;38.50;;;;;;5066391;28;19920;-73
2023/01/31 12:21:23;;;;;;;;;;;23.90;37.90;;;;;;5074720;28;19917;-73
2023/01/31 12:23:55;;;;;;;;;;;23.90;37.80;;;;;;5057243;28;19908;-73
2023/01/31 12:26:30;;;;;;;;;;;23.90;37.90;;;;;;5073303;28;20015;-73
2023/01/31 12:28:57;;;;;;;;;;;23.80;37.80;;;;;;5073583;28;19916;-73
2023/01/31 12:31:42;;;;;;;;;;;23.70;38.20;;;;;;5074817;28;19915;-73
2023/01/31 12:34:16;;;;;;;;;;;23.40;39.10;;;;;;5075300;28;19913;-73
2023/01/31 12:36:56;;;;;;;;;;;23.20;39.00;;;;;;5075177;28;19952;-73
2023/01/31 12:39:24;;;;;;;;;;;22.90;39.40;;;;;;5082142;28;19912;-73
2023/01/31 12:42:05;;;;;;;;;;;22.60;39.80;;;;;;5073176;28;19964;-73
2023/01/31 12:44:46;;;;;;;;;;;22.50;40.20;;;;;;5081847;28;19908;-73
2023/01/31 12:47:35;;;;;;;;;;;22.30;40.60;;;;;;5071606;28;20374;-73
2023/01/31 12:50:09;;;;;;;;;;;22.10;40.80;;;;;;5071356;28;19921;-73
2023/01/31 12:52:47;;;;;;;;;;;21.90;41.10;;;;;;5069830;28;19923;-72
2023/01/31 12:55:16;;;;;;;;;;;21.70;41.30;;;;;;5072428;28;19908;-73
2023/01/31 12:57:41;;;;;;;;;;;21.50;42.10;;;;;;5074547;28;19912;-73
2023/01/31 13:00:26;;;;;;;;;;;21.30;42.50;;;;;;5071468;28;19920;-73
2023/01/31 13:02:57;;;;;;;;;;;21.30;42.50;;;;;;5074667;28;19966;-73
2023/01/31 13:05:31;;;;;;;;;;;21.50;42.30;;;;;;5070436;28;20243;-73
2023/01/31 13:07:59;;;;;;;;;;;21.70;41.90;;;;;;5074541;28;20229;-73
2023/01/31 13:10:35;;;;;;;;;;;22.00;41.50;;;;;;5074960;28;19916;-73
2023/01/31 13:13:01;;;;;;;;;;;22.10;41.10;;;;;;5068550;28;20381;-73
2023/01/31 13:15:27;;;;;;;;;;;22.20;40.90;;;;;;5072685;28;19908;-73
2023/01/31 13:17:54;;;;;;;;;;;22.20;40.80;;;;;;5068693;28;19951;-72
2023/01/31 13:20:22;;;;;;;;;;;22.20;40.80;;;;;;5072110;28;19962;-73
2023/01/31 13:22:48;;;;;;;;;;;22.20;41.60;;;;;;5069256;28;19908;-73
2023/01/31 13:25:14;;;;;;;;;;;22.10;40.90;;;;;;5069704;28;19955;-73
2023/01/31 13:27:40;;;;;;;;;;;22.10;41.10;;;;;;5077750;28;19967;-72
2023/01/31 13:30:24;;;;;;;;;;;22.10;41.20;;;;;;5061299;28;19921;-73
2023/01/31 13:32:51;;;;;;;;;;;22.00;41.20;;;;;;5067667;28;20382;-72
2023/01/31 13:35:17;;;;;;;;;;;22.20;41.00;;;;;;5072552;28;20414;-72
2023/01/31 13:37:42;;;;;;;;;;;22.30;40.70;;;;;;5073666;28;20261;-73
2023/01/31 13:40:18;;;;;;;;;;;22.40;40.80;;;;;;5073113;28;19939;-73
2023/01/31 13:42:44;;;;;;;;;;;22.50;40.60;;;;;;5072758;28;19908;-73
2023/01/31 13:45:11;;;;;;;;;;;22.50;40.60;;;;;;5072511;28;19916;-73
2023/01/31 13:47:43;;;;;;;;;;;22.50;40.70;;;;;;5071362;28;20292;-73
2023/01/31 13:50:28;;;;;;;;;;;22.40;40.70;;;;;;5064971;28;19966;-73
2023/01/31 13:52:55;;;;;;;;;;;22.40;40.80;;;;;;5062494;28;20645;-73
2023/01/31 13:55:23;;;;;;;;;;;22.20;40.90;;;;;;5073410;28;20427;-73
2023/01/31 13:57:54;;;;;;;;;;;22.10;41.30;;;;;;5068298;28;19998;-73
2023/01/31 14:00:29;;;;;;;;;;;21.90;41.40;;;;;;5072508;28;19928;-73
2023/01/31 14:03:01;;;;;;;;;;;21.80;41.70;;;;;;5067132;28;19916;-72
2023/01/31 14:05:48;;;;;;;;;;;21.70;41.80;;;;;;5060505;28;19920;-73
2023/01/31 14:08:26;;;;;;;;;;;21.70;41.90;;;;;;5068369;28;19932;-73
2023/01/31 14:10:54;;;;;;;;;;;21.70;41.90;;;;;;5071938;28;19923;-73
2023/01/31 14:13:26;;;;;;;;;;;21.80;41.90;;;;;;5054837;28;20153;-73
2023/01/31 14:15:52;;;;;;;;;;;21.80;41.80;;;;;;5073241;28;19908;-73
2023/01/31 14:18:36;;;;;;;;;;;21.80;41.70;;;;;;5072056;28;19970;-73
2023/01/31 14:21:24;;;;;;;;;;;21.80;41.60;;;;;;5072488;28;19912;-73
2023/01/31 14:23:50;;;;;;;;;;;21.90;41.50;;;;;;5049555;28;20315;-75
2023/01/31 14:26:48;;;;;;;;;;;21.90;42.20;;;;;;5069215;28;19960;-73
2023/01/31 14:29:15;;;;;;;;;;;21.90;41.60;;;;;;5070556;28;19999;-74
2023/01/31 14:31:44;;;;;;;;;;;22.00;41.60;;;;;;5072037;28;19909;-73